Time;durP1;ratioP1;P1;durP2;ratioP2;P2;SDS_P1;SDS_P2;PMS_P1;PMS_P2;Temp;Humidity;BMP_temperature;BMP_pressure;BME280_temperature;BME280_humidity;BME280_pressure;Samples;Min_cycle;Max_cycle;Signal;HPM_P1;HPM_P2
2024/03/26 00:00:07;;;;;;;6.78;3.47;;;23.80;42.70;;;;;;6153272;28;80909;-54
2024/03/26 00:03:08;;;;;;;6.72;3.88;;;23.80;42.20;;;;;;6155314;28;81612;-57
2024/03/26 00:06:09;;;;;;;5.63;4.05;;;23.80;42.80;;;;;;6152211;28;80554;-58
2024/03/26 00:09:09;;;;;;;6.30;3.40;;;23.90;42.80;;;;;;6159669;28;80191;-58
2024/03/26 00:12:10;;;;;;;4.97;3.50;;;23.90;43.00;;;;;;6156466;28;80586;-61
2024/03/26 00:15:11;;;;;;;7.35;3.92;;;23.80;42.80;;;;;;6156666;28;80653;-58
2024/03/26 00:18:11;;;;;;;7.38;3.75;;;23.90;42.40;;;;;;6161163;28;81307;-58
2024/03/26 00:21:12;;;;;;;6.03;3.53;;;23.90;42.60;;;;;;6152722;28;82614;-59
2024/03/26 00:24:12;;;;;;;4.63;3.65;;;23.90;42.50;;;;;;6153044;28;80595;-58
2024/03/26 00:27:13;;;;;;;4.93;3.60;;;23.90;42.30;;;;;;6153137;28;80780;-57
2024/03/26 00:30:13;;;;;;;6.55;3.58;;;23.90;42.40;;;;;;6152105;28;81038;-58
2024/03/26 00:33:14;;;;;;;5.95;3.83;;;23.90;42.20;;;;;;6163798;28;80284;-55
2024/03/26 00:36:14;;;;;;;4.43;3.33;;;23.90;42.20;;;;;;6153067;28;81512;-57
2024/03/26 00:39:15;;;;;;;4.97;3.40;;;23.90;42.40;;;;;;6150678;28;81125;-58
2024/03/26 00:42:15;;;;;;;6.32;3.72;;;23.90;42.20;;;;;;6152286;28;80808;-58
2024/03/26 00:45:16;;;;;;;5.53;3.80;;;23.90;42.20;;;;;;6153328;28;80515;-59
2024/03/26 00:48:16;;;;;;;5.78;4.00;;;23.90;42.30;;;;;;6152266;28;80664;-57
2024/03/26 00:51:17;;;;;;;6.57;4.00;;;23.80;42.10;;;;;;6152431;28;80929;-58
2024/03/26 00:54:17;;;;;;;5.72;3.60;;;23.80;42.10;;;;;;6153031;28;80377;-56
2024/03/26 00:57:18;;;;;;;4.85;3.40;;;23.80;42.10;;;;;;6151911;28;80917;-58
2024/03/26 01:00:18;;;;;;;5.25;3.80;;;23.80;42.20;;;;;;6152125;28;82268;-55
2024/03/26 01:03:19;;;;;;;4.93;3.38;;;23.80;42.10;;;;;;6154545;28;80550;-57
2024/03/26 01:06:19;;;;;;;4.80;3.05;;;23.80;42.30;;;;;;6161231;28;80285;-56
2024/03/26 01:09:20;;;;;;;5.30;3.78;;;23.80;42.10;;;;;;6152071;28;80872;-55
2024/03/26 01:12:20;;;;;;;5.07;3.58;;;23.80;42.10;;;;;;6161935;28;81091;-57
2024/03/26 01:15:21;;;;;;;4.28;3.25;;;23.80;42.10;;;;;;6151781;28;81117;-56
2024/03/26 01:18:21;;;;;;;7.80;3.80;;;23.80;42.00;;;;;;6150982;28;80814;-58
2024/03/26 01:21:22;;;;;;;4.40;3.22;;;23.80;42.00;;;;;;6151870;28;80773;-59
2024/03/26 01:24:22;;;;;;;7.10;3.70;;;23.80;42.00;;;;;;6151943;28;81200;-59
2024/03/26 01:27:23;;;;;;;4.50;3.40;;;23.80;42.00;;;;;;6152744;28;80832;-57
2024/03/26 01:30:23;;;;;;;5.22;3.63;;;23.80;42.00;;;;;;6151745;28;80394;-57
2024/03/26 01:33:24;;;;;;;5.32;3.58;;;23.80;42.00;;;;;;6162671;28;80315;-57
2024/03/26 01:36:24;;;;;;;6.28;4.13;;;23.80;42.00;;;;;;6152079;28;80262;-58
2024/03/26 01:39:25;;;;;;;4.93;3.15;;;23.80;42.00;;;;;;6151421;28;80924;-58
2024/03/26 01:42:25;;;;;;;5.35;3.60;;;23.70;41.90;;;;;;6151155;28;80042;-58
2024/03/26 01:45:26;;;;;;;6.35;3.58;;;23.80;42.00;;;;;;6152164;28;80701;-57
2024/03/26 01:48:26;;;;;;;6.57;3.72;;;23.70;42.00;;;;;;6151649;28;80366;-57
2024/03/26 01:51:27;;;;;;;6.28;3.65;;;23.80;41.90;;;;;;6151715;28;80583;-55
2024/03/26 01:54:27;;;;;;;6.47;4.28;;;23.80;41.90;;;;;;6152312;28;80176;-57
2024/03/26 01:57:28;;;;;;;5.47;3.47;;;23.80;41.90;;;;;;6151445;28;81125;-56
2024/03/26 02:00:28;;;;;;;4.88;3.63;;;23.80;41.90;;;;;;6165806;28;82354;-56
2024/03/26 02:03:29;;;;;;;6.50;3.92;;;23.80;42.00;;;;;;6168906;28;81021;-57
2024/03/26 02:06:30;;;;;;;5.03;3.72;;;23.80;41.80;;;;;;6156995;28;80456;-55
2024/03/26 02:09:31;;;;;;;5.28;3.30;;;23.80;42.00;;;;;;6161916;28;85012;-57
2024/03/26 02:12:31;;;;;;;4.68;3.55;;;23.80;42.00;;;;;;6155833;28;80998;-58
2024/03/26 02:15:32;;;;;;;5.15;3.42;;;23.80;42.10;;;;;;6151494;28;80608;-59
2024/03/26 02:18:32;;;;;;;4.65;3.53;;;23.80;42.00;;;;;;6163797;28;80328;-59
2024/03/26 02:21:33;;;;;;;5.88;3.95;;;23.90;42.00;;;;;;6150856;28;80623;-59
2024/03/26 02:24:33;;;;;;;6.18;3.38;;;23.90;42.10;;;;;;6154628;28;81022;-59
2024/03/26 02:27:34;;;;;;;5.32;3.53;;;23.80;42.00;;;;;;6162502;28;80099;-59
2024/03/26 02:30:35;;;;;;;5.18;3.72;;;23.80;41.90;;;;;;6161343;28;81045;-59
2024/03/26 02:33:35;;;;;;;4.85;3.13;;;23.80;42.00;;;;;;6161470;28;80653;-59
2024/03/26 02:36:36;;;;;;;4.63;3.42;;;23.80;41.90;;;;;;6144501;28;80649;-60
2024/03/26 02:39:36;;;;;;;6.35;3.55;;;23.80;41.90;;;;;;6153007;28;80285;-61
2024/03/26 02:42:37;;;;;;;5.68;3.60;;;23.80;41.80;;;;;;6159252;28;80840;-61
2024/03/26 02:45:37;;;;;;;5.28;3.00;;;23.80;41.90;;;;;;6152195;28;80081;-60
2024/03/26 02:48:38;;;;;;;3.70;3.08;;;23.80;41.90;;;;;;6160894;28;80765;-55
2024/03/26 02:51:38;;;;;;;5.15;3.28;;;23.70;41.90;;;;;;6168196;28;80201;-55
2024/03/26 02:54:39;;;;;;;5.53;3.45;;;23.70;42.00;;;;;;6164103;28;80873;-56
2024/03/26 02:57:39;;;;;;;5.85;3.42;;;23.80;42.20;;;;;;6155145;28;80194;-56
2024/03/26 03:00:40;;;;;;;5.68;3.78;;;23.80;42.10;;;;;;6168919;28;81165;-57
2024/03/26 03:03:40;;;;;;;6.20;3.08;;;23.80;42.10;;;;;;6132296;28;81550;-58
2024/03/26 03:06:41;;;;;;;5.32;3.55;;;23.70;42.00;;;;;;6164511;28;80565;-59
2024/03/26 03:09:41;;;;;;;6.35;3.47;;;23.70;41.90;;;;;;6154623;28;81151;-59
2024/03/26 03:12:42;;;;;;;4.20;3.42;;;23.70;42.10;;;;;;6155342;28;80522;-59
2024/03/26 03:15:42;;;;;;;4.43;3.13;;;23.70;42.10;;;;;;6168947;28;80809;-59
2024/03/26 03:18:43;;;;;;;4.40;3.25;;;23.70;42.00;;;;;;6168427;28;81096;-59
2024/03/26 03:21:43;;;;;;;6.90;3.88;;;23.70;41.70;;;;;;6164865;28;80444;-59
2024/03/26 03:24:44;;;;;;;5.45;3.58;;;23.70;41.80;;;;;;6166503;28;80266;-60
2024/03/26 03:27:44;;;;;;;5.93;3.78;;;23.70;41.60;;;;;;6165999;28;80906;-60
2024/03/26 03:30:45;;;;;;;4.38;3.35;;;23.70;41.60;;;;;;6159312;28;85019;-59
2024/03/26 03:33:45;;;;;;;3.92;2.60;;;23.70;41.80;;;;;;6159494;28;80982;-61
2024/03/26 03:36:46;;;;;;;4.28;3.25;;;23.80;42.50;;;;;;6151651;28;80585;-60
2024/03/26 03:39:46;;;;;;;5.68;3.83;;;23.70;42.30;;;;;;6154326;28;80356;-59
2024/03/26 03:42:47;;;;;;;6.40;3.92;;;23.70;42.10;;;;;;6165528;28;80353;-58
2024/03/26 03:45:48;;;;;;;6.50;3.85;;;23.70;42.20;;;;;;6159490;28;80912;-55
2024/03/26 03:48:48;;;;;;;6.07;3.40;;;23.70;42.00;;;;;;6154194;28;80690;-57
2024/03/26 03:51:49;;;;;;;6.00;4.15;;;23.70;41.80;;;;;;6169570;28;80753;-56
2024/03/26 03:54:49;;;;;;;5.57;3.58;;;23.80;41.90;;;;;;6164421;28;80422;-54
2024/03/26 03:57:50;;;;;;;4.13;3.08;;;23.80;42.00;;;;;;6175874;28;80508;-56
2024/03/26 04:00:50;;;;;;;4.90;3.17;;;23.70;42.40;;;;;;6164911;28;80396;-55
2024/03/26 04:03:51;;;;;;;5.35;3.80;;;23.70;42.10;;;;;;6152957;28;81407;-57
2024/03/26 04:06:51;;;;;;;6.13;3.92;;;23.80;41.80;;;;;;6158730;28;80325;-57
2024/03/26 04:09:52;;;;;;;6.88;4.40;;;23.80;42.00;;;;;;6153979;28;85036;-58
2024/03/26 04:12:52;;;;;;;7.95;4.15;;;23.80;41.90;;;;;;6162773;28;80491;-57
2024/03/26 04:15:53;;;;;;;4.53;3.30;;;23.70;41.90;;;;;;6156074;28;83051;-58
2024/03/26 04:18:53;;;;;;;5.05;3.65;;;23.70;41.90;;;;;;6173157;28;82977;-57
2024/03/26 04:21:54;;;;;;;8.77;3.70;;;23.70;42.20;;;;;;6168852;28;80607;-48
2024/03/26 04:24:54;;;;;;;5.30;3.63;;;23.70;42.10;;;;;;6165924;28;81643;-51
2024/03/26 04:27:55;;;;;;;6.40;3.85;;;23.70;42.00;;;;;;6153173;28;80885;-49
2024/03/26 04:30:55;;;;;;;4.45;3.28;;;23.70;42.00;;;;;;6152757;28;80590;-53
2024/03/26 04:33:56;;;;;;;5.00;3.33;;;23.70;42.50;;;;;;6167889;28;82135;-52
2024/03/26 04:36:56;;;;;;;8.90;4.38;;;23.70;42.50;;;;;;6152270;28;80955;-52
2024/03/26 04:39:57;;;;;;;5.25;3.97;;;23.60;42.50;;;;;;6160896;28;80790;-51
2024/03/26 04:42:57;;;;;;;6.78;3.90;;;23.60;42.60;;;;;;6163234;28;80965;-47
2024/03/26 04:45:58;;;;;;;6.38;3.80;;;23.70;42.30;;;;;;6153207;28;80957;-58
2024/03/26 04:48:58;;;;;;;5.85;4.28;;;23.70;42.50;;;;;;6152622;28;80574;-55
2024/03/26 04:51:59;;;;;;;7.20;4.20;;;23.70;42.30;;;;;;6160469;28;80508;-57
2024/03/26 04:54:59;;;;;;;7.60;4.32;;;23.60;42.30;;;;;;6160947;28;80877;-55
2024/03/26 04:58:00;;;;;;;5.65;4.20;;;23.70;42.10;;;;;;6159936;28;80792;-55
2024/03/26 05:01:00;;;;;;;8.82;3.83;;;23.60;42.20;;;;;;6151437;28;82901;-50
2024/03/26 05:04:01;;;;;;;6.88;4.15;;;23.70;42.60;;;;;;6153072;28;80382;-55
2024/03/26 05:07:01;;;;;;;8.73;3.78;;;23.60;43.00;;;;;;6151632;28;80700;-53
2024/03/26 05:10:03;;;;;;;7.60;3.97;;;23.70;42.70;;;;;;6152824;28;80865;-56
2024/03/26 05:13:04;;;;;;;6.20;4.03;;;23.70;42.70;;;;;;6152325;28;80232;-56
2024/03/26 05:16:05;;;;;;;8.10;4.38;;;23.70;42.80;;;;;;6164400;28;84772;-54
2024/03/26 05:19:05;;;;;;;7.97;4.85;;;23.70;43.10;;;;;;6151138;28;89577;-52
2024/03/26 05:22:06;;;;;;;7.53;4.47;;;23.70;43.00;;;;;;6148340;28;83847;-60
2024/03/26 05:25:06;;;;;;;7.13;4.72;;;23.70;42.90;;;;;;6165376;28;80937;-54
2024/03/26 05:28:07;;;;;;;7.70;4.82;;;23.70;43.10;;;;;;6168446;28;80687;-53
2024/03/26 05:31:07;;;;;;;7.80;4.40;;;23.70;43.00;;;;;;6163327;28;80820;-47
2024/03/26 05:34:09;;;;;;;8.65;5.43;;;23.70;43.10;;;;;;6153508;28;81816;-54
2024/03/26 05:37:09;;;;;;;8.90;4.88;;;23.70;43.20;;;;;;6150932;28;83055;-59
2024/03/26 05:40:10;;;;;;;6.97;4.85;;;23.70;43.30;;;;;;6158401;28;80543;-55
2024/03/26 05:43:11;;;;;;;14.73;5.13;;;23.80;43.70;;;;;;6147457;28;80650;-50
2024/03/26 05:46:11;;;;;;;10.65;4.60;;;23.80;43.40;;;;;;6147712;28;80800;-55
2024/03/26 05:49:12;;;;;;;8.05;4.93;;;23.80;43.50;;;;;;6160873;28;80851;-54
2024/03/26 05:52:12;;;;;;;11.40;4.88;;;23.70;43.10;;;;;;6157074;28;80274;-57
2024/03/26 05:55:13;;;;;;;12.55;5.28;;;23.80;43.70;;;;;;6148249;28;81764;-56
2024/03/26 05:58:13;;;;;;;10.45;5.22;;;23.70;43.20;;;;;;6147765;28;80109;-55
2024/03/26 06:01:14;;;;;;;8.10;4.63;;;23.70;43.00;;;;;;6149971;28;80794;-57
2024/03/26 06:04:14;;;;;;;9.15;4.90;;;23.70;42.80;;;;;;6148397;28;82622;-55
2024/03/26 06:07:15;;;;;;;9.98;5.45;;;23.70;42.60;;;;;;6151440;28;82300;-52
2024/03/26 06:10:15;;;;;;;7.45;5.35;;;23.70;42.50;;;;;;6150308;28;80389;-57
2024/03/26 06:13:16;;;;;;;10.70;5.50;;;23.60;42.20;;;;;;6163644;28;80907;-58
2024/03/26 06:16:16;;;;;;;10.13;4.80;;;23.60;42.10;;;;;;6150234;28;87334;-57
2024/03/26 06:19:18;;;;;;;9.27;5.90;;;23.60;41.90;;;;;;6164054;28;80492;-57
2024/03/26 06:22:19;;;;;;;8.80;5.90;;;23.70;41.80;;;;;;6152205;28;82144;-58
2024/03/26 06:25:20;;;;;;;8.82;5.88;;;23.60;41.70;;;;;;6163444;28;80471;-58
2024/03/26 06:28:20;;;;;;;8.50;5.82;;;23.60;41.70;;;;;;6153300;28;80569;-57
2024/03/26 06:31:21;;;;;;;7.85;5.43;;;23.60;41.50;;;;;;6157269;28;80764;-58
2024/03/26 06:34:21;;;;;;;10.45;5.82;;;23.60;41.40;;;;;;6165866;28;80389;-55
2024/03/26 06:37:22;;;;;;;11.00;5.65;;;23.60;41.20;;;;;;6173423;28;80790;-57
2024/03/26 06:40:22;;;;;;;7.22;5.07;;;23.60;41.10;;;;;;6154810;28;81068;-58
2024/03/26 06:43:23;;;;;;;7.07;5.03;;;23.60;41.00;;;;;;6155254;28;80699;-57
2024/03/26 06:46:24;;;;;;;8.63;5.43;;;23.60;40.90;;;;;;6166890;28;81326;-57
2024/03/26 06:49:24;;;;;;;10.18;6.13;;;23.60;40.90;;;;;;6154906;28;82268;-58
2024/03/26 06:52:25;;;;;;;8.65;5.65;;;23.60;40.80;;;;;;6166483;28;81423;-58
2024/03/26 06:55:26;;;;;;;7.50;5.30;;;23.60;40.80;;;;;;6154606;28;81182;-58
2024/03/26 06:58:26;;;;;;;8.40;5.57;;;23.60;40.70;;;;;;6154824;28;80708;-57
2024/03/26 07:01:27;;;;;;;9.38;5.50;;;23.60;40.70;;;;;;6155248;28;80713;-58
2024/03/26 07:04:28;;;;;;;10.32;5.45;;;23.70;40.80;;;;;;6166751;28;80617;-57
2024/03/26 07:07:28;;;;;;;9.32;5.35;;;23.60;40.70;;;;;;6155028;28;81462;-58
2024/03/26 07:10:29;;;;;;;11.90;5.65;;;23.60;40.60;;;;;;6154660;28;80437;-58
2024/03/26 07:13:29;;;;;;;9.00;5.30;;;23.70;40.60;;;;;;6154565;28;80284;-56
2024/03/26 07:16:31;;;;;;;9.48;5.50;;;23.60;40.60;;;;;;6154343;28;80554;-57
2024/03/26 07:19:33;;;;;;;8.02;5.30;;;23.70;40.60;;;;;;6154666;28;80394;-56
2024/03/26 07:22:33;;;;;;;7.63;5.30;;;23.70;41.20;;;;;;6155247;28;80619;-58
2024/03/26 07:25:34;;;;;;;7.68;5.13;;;23.70;40.70;;;;;;6153986;28;81266;-56
2024/03/26 07:28:34;;;;;;;7.82;5.55;;;23.70;40.70;;;;;;6153465;28;80435;-53
2024/03/26 07:31:35;;;;;;;8.40;5.70;;;23.70;40.70;;;;;;6158649;28;80406;-54
2024/03/26 07:34:35;;;;;;;8.68;5.65;;;23.70;40.50;;;;;;6156017;28;80649;-53
2024/03/26 07:37:36;;;;;;;8.10;5.45;;;23.70;40.60;;;;;;6153118;28;80871;-57
2024/03/26 07:40:36;;;;;;;8.90;5.55;;;23.70;40.60;;;;;;6155913;28;80555;-56
2024/03/26 07:43:37;;;;;;;7.18;5.03;;;23.70;40.50;;;;;;6154125;28;80526;-56
2024/03/26 07:46:37;;;;;;;6.85;5.13;;;23.70;40.60;;;;;;6153595;28;81470;-56
2024/03/26 07:49:38;;;;;;;7.88;5.53;;;23.70;40.60;;;;;;6152986;28;81586;-58
2024/03/26 07:52:39;;;;;;;8.65;5.80;;;23.70;40.60;;;;;;6153606;28;80470;-55
2024/03/26 07:55:39;;;;;;;6.70;5.15;;;23.70;40.60;;;;;;6153756;28;80410;-56
2024/03/26 07:58:40;;;;;;;6.38;4.60;;;23.80;40.70;;;;;;6153437;28;81299;-56
2024/03/26 08:01:40;;;;;;;6.85;4.57;;;23.80;40.70;;;;;;6152589;28;80193;-57
2024/03/26 08:04:41;;;;;;;7.15;5.00;;;23.80;40.70;;;;;;6155906;28;82806;-56
2024/03/26 08:07:41;;;;;;;5.65;4.20;;;23.80;40.60;;;;;;6174763;28;80680;-58
2024/03/26 08:10:42;;;;;;;7.28;5.38;;;23.80;40.70;;;;;;6153261;28;80332;-58
2024/03/26 08:13:42;;;;;;;7.20;4.40;;;23.80;40.80;;;;;;6154152;28;80449;-57
2024/03/26 08:16:43;;;;;;;10.63;5.32;;;23.80;40.80;;;;;;6153333;28;80690;-57
2024/03/26 08:19:43;;;;;;;6.65;4.50;;;23.80;40.90;;;;;;6153308;28;81198;-56
2024/03/26 08:22:44;;;;;;;6.90;4.70;;;23.80;40.90;;;;;;6152068;28;80996;-56
2024/03/26 08:25:44;;;;;;;7.03;4.35;;;23.80;41.00;;;;;;6152931;28;80143;-53
2024/03/26 08:28:45;;;;;;;7.28;4.85;;;23.90;41.00;;;;;;6152344;28;80664;-55
2024/03/26 08:31:45;;;;;;;8.10;4.97;;;23.90;41.20;;;;;;6159674;28;80049;-56
2024/03/26 08:34:46;;;;;;;7.03;3.97;;;24.00;41.20;;;;;;6153041;28;81923;-57
2024/03/26 08:37:46;;;;;;;5.65;4.25;;;24.00;40.90;;;;;;6160249;28;80513;-56
2024/03/26 08:40:47;;;;;;;5.43;3.88;;;24.00;41.00;;;;;;6152922;28;80428;-55
2024/03/26 08:43:47;;;;;;;5.45;3.67;;;24.00;41.10;;;;;;6152837;28;80045;-54
2024/03/26 08:46:48;;;;;;;5.80;3.72;;;24.10;41.20;;;;;;6152560;28;80774;-56
2024/03/26 08:49:49;;;;;;;5.93;3.65;;;24.10;41.30;;;;;;6152964;28;80644;-56
2024/03/26 08:52:49;;;;;;;6.45;4.38;;;24.10;41.20;;;;;;6166606;28;80326;-57
2024/03/26 08:55:50;;;;;;;5.32;3.55;;;24.10;41.30;;;;;;6153440;28;80670;-58
2024/03/26 08:58:50;;;;;;;4.88;3.40;;;24.20;41.30;;;;;;6152931;28;80122;-58
2024/03/26 09:01:51;;;;;;;3.30;3.00;;;24.20;41.20;;;;;;6151975;28;80882;-58
2024/03/26 09:04:53;;;;;;;6.38;3.33;;;24.30;41.20;;;;;;6164599;28;80605;-57
2024/03/26 09:07:53;;;;;;;4.53;3.10;;;24.30;41.20;;;;;;6151685;28;82759;-58
2024/03/26 09:10:54;;;;;;;5.10;3.50;;;24.30;41.10;;;;;;6151788;28;80348;-58
2024/03/26 09:13:54;;;;;;;3.40;2.80;;;24.30;41.00;;;;;;6152659;28;80623;-58
2024/03/26 09:16:55;;;;;;;4.03;3.05;;;24.30;40.90;;;;;;6151810;28;81786;-58
2024/03/26 09:19:55;;;;;;;6.40;3.35;;;24.30;40.90;;;;;;6150992;28;80331;-62
2024/03/26 09:22:56;;;;;;;3.78;2.67;;;24.40;41.00;;;;;;6151565;28;81132;-59
2024/03/26 09:25:56;;;;;;;4.05;3.10;;;24.40;40.90;;;;;;6152101;28;80189;-58
2024/03/26 09:28:57;;;;;;;4.40;3.13;;;24.40;41.00;;;;;;6152037;28;80385;-59
2024/03/26 09:31:57;;;;;;;4.90;3.22;;;24.40;41.00;;;;;;6155645;28;80546;-58
2024/03/26 09:34:58;;;;;;;4.45;3.13;;;24.40;41.00;;;;;;6164444;28;80337;-58
2024/03/26 09:37:58;;;;;;;4.05;2.70;;;24.40;41.00;;;;;;6151709;28;80760;-59
2024/03/26 09:40:59;;;;;;;3.25;2.50;;;24.40;41.00;;;;;;6151840;28;80925;-59
2024/03/26 09:43:59;;;;;;;4.47;2.72;;;24.50;41.20;;;;;;6151395;28;81338;-58
2024/03/26 09:47:00;;;;;;;3.78;2.67;;;24.50;41.10;;;;;;6150196;28;80734;-55
2024/03/26 09:50:00;;;;;;;3.45;2.47;;;24.50;41.10;;;;;;6151546;28;80524;-58
2024/03/26 09:53:01;;;;;;;4.00;2.35;;;24.50;41.30;;;;;;6151197;28;80452;-56
2024/03/26 09:56:01;;;;;;;4.30;2.70;;;24.50;41.30;;;;;;6152144;28;80967;-54
2024/03/26 09:59:02;;;;;;;4.05;2.92;;;24.50;41.40;;;;;;6151445;28;80282;-54
2024/03/26 10:02:02;;;;;;;3.70;2.35;;;24.50;41.50;;;;;;6151270;28;81603;-57
2024/03/26 10:05:03;;;;;;;4.55;2.53;;;24.40;41.50;;;;;;6156027;28;81392;-57
2024/03/26 10:08:03;;;;;;;3.83;2.60;;;24.40;41.40;;;;;;6150717;28;79974;-55
2024/03/26 10:11:04;;;;;;;5.03;2.97;;;24.40;41.50;;;;;;6146694;28;81020;-54
2024/03/26 10:14:04;;;;;;;3.35;2.70;;;24.50;41.40;;;;;;6154922;28;80481;-53
2024/03/26 10:17:05;;;;;;;3.95;2.38;;;24.50;41.40;;;;;;6155647;28;80807;-58
2024/03/26 10:20:05;;;;;;;4.63;2.20;;;24.50;41.40;;;;;;6154992;28;80583;-55
2024/03/26 10:23:06;;;;;;;4.20;2.35;;;24.50;41.40;;;;;;6151138;28;82935;-54
2024/03/26 10:26:07;;;;;;;3.13;2.40;;;24.60;41.40;;;;;;6161102;28;80738;-54
2024/03/26 10:29:07;;;;;;;2.80;2.35;;;24.60;41.40;;;;;;6157722;28;80834;-54
2024/03/26 10:32:08;;;;;;;3.05;2.30;;;24.60;41.40;;;;;;6161863;28;81168;-56
2024/03/26 10:35:08;;;;;;;3.63;2.63;;;24.70;41.40;;;;;;6155091;28;80260;-57
2024/03/26 10:38:09;;;;;;;2.38;2.03;;;24.70;41.40;;;;;;6155539;28;80578;-54
2024/03/26 10:41:09;;;;;;;3.90;2.53;;;24.70;41.40;;;;;;6165047;28;80385;-55
2024/03/26 10:44:10;;;;;;;3.30;2.40;;;24.70;41.40;;;;;;6157741;28;80513;-58
2024/03/26 10:47:10;;;;;;;5.72;2.70;;;24.80;41.40;;;;;;6155244;28;80777;-59
2024/03/26 10:50:11;;;;;;;2.50;2.30;;;24.80;41.50;;;;;;6154467;28;81057;-56
2024/03/26 10:53:11;;;;;;;3.45;2.30;;;24.80;41.30;;;;;;6153976;28;80873;-57
2024/03/26 10:56:12;;;;;;;2.40;2.20;;;24.80;41.30;;;;;;6155327;28;80768;-60
2024/03/26 10:59:12;;;;;;;3.00;2.58;;;24.90;41.30;;;;;;6156066;28;80539;-57
2024/03/26 11:02:13;;;;;;;2.65;2.13;;;24.90;41.40;;;;;;6168649;28;80448;-58
2024/03/26 11:05:13;;;;;;;2.78;2.03;;;24.90;41.30;;;;;;6163130;28;81051;-54
2024/03/26 11:08:14;;;;;;;2.92;2.10;;;24.90;41.30;;;;;;6158981;28;80503;-57
2024/03/26 11:11:18;;;;;;;2.40;2.08;;;24.90;41.30;;;;;;6154215;28;80290;-60
2024/03/26 11:14:18;;;;;;;2.25;1.90;;;24.90;41.40;;;;;;6153921;28;80359;-57
2024/03/26 11:17:19;;;;;;;3.40;2.20;;;24.90;41.30;;;;;;6154285;28;80782;-58
2024/03/26 11:20:20;;;;;;;2.55;2.10;;;24.90;41.30;;;;;;6155719;28;79953;-56
2024/03/26 11:23:20;;;;;;;2.65;1.83;;;24.90;41.20;;;;;;6153111;28;80324;-58
2024/03/26 11:26:21;;;;;;;2.40;2.08;;;24.90;41.20;;;;;;6160515;28;80787;-57
2024/03/26 11:29:21;;;;;;;3.67;2.00;;;24.90;41.20;;;;;;6153119;28;87415;-58
2024/03/26 11:32:23;;;;;;;2.80;1.73;;;24.90;41.20;;;;;;6161008;28;80474;-58
2024/03/26 11:35:26;;;;;;;2.42;1.83;;;25.00;41.20;;;;;;6154214;28;80587;-57
2024/03/26 11:38:27;;;;;;;2.25;1.80;;;25.00;41.30;;;;;;6153989;28;80993;-59
2024/03/26 11:41:27;;;;;;;2.28;1.77;;;24.90;41.00;;;;;;6154877;28;80422;-58
2024/03/26 11:44:28;;;;;;;3.00;1.73;;;24.90;41.00;;;;;;6154565;28;81239;-58
2024/03/26 11:47:29;;;;;;;3.22;1.98;;;25.00;41.00;;;;;;6153267;28;81534;-57
2024/03/26 11:50:29;;;;;;;2.72;1.60;;;25.00;41.20;;;;;;6153083;28;80240;-58
2024/03/26 11:53:30;;;;;;;2.72;1.77;;;25.00;41.10;;;;;;6155107;28;81265;-56
2024/03/26 11:56:30;;;;;;;2.85;1.77;;;25.00;41.20;;;;;;6153275;28;80171;-59
2024/03/26 11:59:31;;;;;;;1.55;1.42;;;25.00;41.10;;;;;;6154062;28;80464;-59
2024/03/26 12:02:31;;;;;;;6.00;1.75;;;25.00;40.90;;;;;;6154593;28;82211;-57
2024/03/26 12:05:32;;;;;;;3.55;1.88;;;25.00;41.00;;;;;;6163388;28;81274;-57
2024/03/26 12:08:32;;;;;;;2.13;1.75;;;25.00;41.10;;;;;;6165328;28;80353;-57
2024/03/26 12:11:33;;;;;;;2.20;1.92;;;25.00;41.20;;;;;;6154507;28;81687;-58
2024/03/26 12:14:33;;;;;;;2.03;1.80;;;25.00;41.20;;;;;;6153647;28;80603;-58
2024/03/26 12:17:34;;;;;;;2.60;1.80;;;25.00;41.20;;;;;;6166548;28;80840;-57
2024/03/26 12:20:34;;;;;;;3.45;1.77;;;25.00;41.20;;;;;;6152782;28;81395;-58
2024/03/26 12:23:35;;;;;;;1.52;1.35;;;25.00;41.20;;;;;;6165043;28;80606;-56
2024/03/26 12:26:35;;;;;;;1.52;1.23;;;25.00;41.40;;;;;;6152659;28;80602;-59
2024/03/26 12:29:36;;;;;;;1.92;1.52;;;25.10;41.40;;;;;;6153151;28;80446;-57
2024/03/26 12:32:36;;;;;;;2.08;1.70;;;25.00;41.20;;;;;;6164024;28;80605;-58
2024/03/26 12:35:37;;;;;;;1.67;1.48;;;25.00;41.20;;;;;;6160601;28;81006;-55
2024/03/26 12:38:38;;;;;;;1.42;1.20;;;25.00;40.90;;;;;;6155141;28;81624;-64
2024/03/26 12:41:38;;;;;;;2.08;1.52;;;25.00;40.70;;;;;;6175210;28;80577;-64
2024/03/26 12:44:39;;;;;;;3.30;1.48;;;25.00;40.80;;;;;;6153688;28;80410;-64
2024/03/26 12:47:39;;;;;;;2.03;1.50;;;25.00;40.90;;;;;;6176746;28;81234;-62
2024/03/26 12:50:40;;;;;;;1.52;1.17;;;25.00;40.90;;;;;;6155591;28;80691;-62
2024/03/26 12:53:40;;;;;;;2.13;1.40;;;25.00;40.80;;;;;;6159970;28;81116;-62
2024/03/26 12:56:42;;;;;;;2.58;1.75;;;25.00;40.90;;;;;;6159055;28;80458;-58
2024/03/26 12:59:42;;;;;;;2.28;1.77;;;25.10;40.80;;;;;;6164948;28;80465;-58
2024/03/26 13:02:43;;;;;;;3.60;1.67;;;25.10;40.80;;;;;;6151995;28;81509;-55
2024/03/26 13:05:43;;;;;;;2.03;1.63;;;25.10;40.90;;;;;;6165515;28;82245;-57
2024/03/26 13:08:44;;;;;;;2.30;1.20;;;25.10;40.70;;;;;;6164852;28;80447;-56
2024/03/26 13:11:44;;;;;;;3.72;1.40;;;25.10;40.60;;;;;;6150723;28;82302;-57
2024/03/26 13:14:45;;;;;;;1.90;1.45;;;25.10;40.70;;;;;;6148545;28;80428;-55
2024/03/26 13:17:45;;;;;;;2.38;1.30;;;25.10;40.80;;;;;;6153374;28;80445;-55
2024/03/26 13:20:46;;;;;;;4.30;1.40;;;25.10;40.80;;;;;;6152482;28;81115;-56
2024/03/26 13:23:46;;;;;;;1.40;1.30;;;25.10;40.60;;;;;;6163114;28;80333;-57
2024/03/26 13:26:48;;;;;;;2.08;1.50;;;25.10;40.40;;;;;;6153151;28;80702;-56
2024/03/26 13:29:48;;;;;;;2.03;1.55;;;25.10;40.30;;;;;;6153230;28;80744;-56
2024/03/26 13:32:49;;;;;;;3.33;1.33;;;25.10;40.40;;;;;;6158296;28;80971;-56
2024/03/26 13:35:50;;;;;;;1.83;1.35;;;25.10;40.40;;;;;;6151484;28;81470;-56
2024/03/26 13:38:51;;;;;;;1.90;1.52;;;25.10;40.40;;;;;;6152185;28;82768;-57
2024/03/26 13:41:51;;;;;;;3.78;1.52;;;25.10;40.50;;;;;;6151602;28;80390;-56
2024/03/26 13:44:52;;;;;;;1.27;1.10;;;25.10;40.40;;;;;;6152016;28;81412;-55
2024/03/26 13:47:53;;;;;;;3.30;1.17;;;25.10;40.60;;;;;;6151701;28;81046;-58
2024/03/26 13:50:53;;;;;;;1.48;1.13;;;25.10;40.60;;;;;;6151206;28;80642;-62
2024/03/26 13:53:53;;;;;;;2.22;1.27;;;25.10;40.70;;;;;;6165537;28;80222;-61
2024/03/26 13:56:54;;;;;;;0.90;0.90;;;25.10;40.50;;;;;;6164614;28;81272;-62
2024/03/26 13:59:55;;;;;;;1.33;1.17;;;25.10;40.50;;;;;;6151269;28;80560;-63
2024/03/26 14:02:55;;;;;;;1.88;1.35;;;25.10;40.50;;;;;;6155731;28;80452;-62
2024/03/26 14:05:56;;;;;;;1.33;1.00;;;25.10;40.50;;;;;;6161928;28;82730;-62
2024/03/26 14:08:56;;;;;;;4.82;1.27;;;25.10;40.60;;;;;;6156951;28;80264;-61
2024/03/26 14:11:57;;;;;;;1.95;1.33;;;25.10;40.60;;;;;;6162769;28;80499;-62
2024/03/26 14:14:58;;;;;;;8.13;1.48;;;25.10;40.70;;;;;;6150746;28;81597;-59
2024/03/26 14:17:58;;;;;;;11.60;1.33;;;25.10;40.50;;;;;;6153716;28;81071;-59
2024/03/26 14:20:59;;;;;;;1.45;1.02;;;25.10;40.40;;;;;;6165252;28;82555;-58
2024/03/26 14:23:59;;;;;;;3.60;1.60;;;25.00;38.90;;;;;;6153025;28;80283;-59
2024/03/26 14:27:00;;;;;;;3.50;1.35;;;25.10;39.00;;;;;;6155912;28;80500;-60
2024/03/26 14:30:00;;;;;;;1.25;1.15;;;25.10;37.30;;;;;;6156395;28;81514;-60
2024/03/26 14:33:02;;;;;;;1.30;0.95;;;25.00;35.50;;;;;;6166008;28;81386;-60
2024/03/26 14:36:03;;;;;;;1.65;0.93;;;25.00;36.00;;;;;;6159771;28;81327;-59
2024/03/26 14:39:03;;;;;;;1.20;1.10;;;25.10;36.40;;;;;;6160621;28;80728;-59
2024/03/26 14:42:04;;;;;;;2.92;1.35;;;25.00;36.00;;;;;;6151573;28;80412;-58
2024/03/26 14:45:05;;;;;;;1.95;1.40;;;25.00;35.00;;;;;;6147900;28;81295;-61
2024/03/26 14:48:06;;;;;;;1.63;1.23;;;25.00;35.40;;;;;;6152668;28;81398;-61
2024/03/26 14:51:06;;;;;;;6.38;1.20;;;25.00;33.80;;;;;;6159766;28;80392;-61
2024/03/26 14:54:07;;;;;;;1.98;1.10;;;25.00;34.00;;;;;;6162710;28;80982;-61
2024/03/26 14:57:07;;;;;;;3.10;1.10;;;25.00;34.10;;;;;;6152456;28;81404;-61
2024/03/26 15:00:11;;;;;;;1.58;1.20;;;25.00;33.60;;;;;;6156356;28;80545;-61
2024/03/26 15:03:11;;;;;;;2.97;1.50;;;25.00;33.60;;;;;;6155771;28;80243;-61
2024/03/26 15:06:15;;;;;;;3.10;1.30;;;25.00;33.40;;;;;;6166324;28;80797;-61
2024/03/26 15:09:15;;;;;;;3.28;1.63;;;24.90;33.30;;;;;;6155864;28;80430;-61
2024/03/26 15:12:16;;;;;;;3.97;1.42;;;24.90;33.30;;;;;;6162187;28;81773;-60
2024/03/26 15:15:18;;;;;;;2.83;1.60;;;24.90;33.20;;;;;;6165579;28;81235;-59
2024/03/26 15:18:18;;;;;;;2.70;1.35;;;24.90;33.30;;;;;;6155267;28;82088;-60
2024/03/26 15:21:19;;;;;;;1.88;1.20;;;24.80;33.00;;;;;;6157399;28;81665;-54
2024/03/26 15:24:19;;;;;;;3.08;1.27;;;24.80;33.30;;;;;;6154719;28;80882;-57
2024/03/26 15:33:39;;;;;;;2.65;1.02;;;24.70;33.40;;;;;;6162609;28;80467;-57
2024/03/26 15:36:40;;;;;;;2.22;1.33;;;24.70;33.70;;;;;;6154598;28;80900;-54
2024/03/26 15:39:41;;;;;;;2.72;1.48;;;24.70;34.40;;;;;;6161322;28;82546;-54
2024/03/26 15:42:41;;;;;;;2.83;1.40;;;24.70;34.70;;;;;;6156296;28;81462;-56